createdAt,value
2018-10-18T00:02:02.055Z,9.80
2018-10-18T00:07:05.666Z,9.80
2018-10-18T00:12:08.212Z,9.70
2018-10-18T00:17:16.286Z,9.70
2018-10-18T00:22:18.775Z,9.70
2018-10-18T00:27:21.272Z,9.70
2018-10-18T00:32:23.754Z,9.70
2018-10-18T00:37:26.269Z,9.60
2018-10-18T00:42:28.799Z,9.60
2018-10-18T00:47:31.399Z,9.60
2018-10-18T00:52:33.951Z,9.60
2018-10-18T00:57:36.695Z,9.60
2018-10-18T01:02:39.277Z,9.50
2018-10-18T01:07:41.923Z,9.50
2018-10-18T01:12:44.517Z,9.50
2018-10-18T01:17:46.951Z,9.40
2018-10-18T01:22:49.472Z,9.30
2018-10-18T01:27:51.981Z,9.20
2018-10-18T01:32:54.495Z,9.10
2018-10-18T01:37:57.138Z,9.10
2018-10-18T01:42:59.663Z,9.00
2018-10-18T01:48:02.261Z,8.90
2018-10-18T01:53:05.371Z,8.90
2018-10-18T01:58:07.886Z,8.90
2018-10-18T02:03:10.404Z,9.00
2018-10-18T02:08:13.150Z,8.90
2018-10-18T02:13:15.511Z,8.80
2018-10-18T02:18:18.035Z,8.80
2018-10-18T02:23:20.667Z,8.70
2018-10-18T02:28:23.184Z,8.70
2018-10-18T02:33:25.754Z,8.60
2018-10-18T02:38:28.288Z,8.50
2018-10-18T02:43:30.821Z,8.40
2018-10-18T02:48:33.343Z,8.30
2018-10-18T02:53:35.863Z,8.30
2018-10-18T02:58:38.384Z,8.40
2018-10-18T03:03:40.933Z,8.50
2018-10-18T03:08:43.496Z,8.50
2018-10-18T03:13:46.057Z,8.50
2018-10-18T03:18:48.574Z,8.50
2018-10-18T03:23:51.187Z,8.50
2018-10-18T03:28:53.970Z,8.50
2018-10-18T03:33:56.477Z,8.50
2018-10-18T03:38:59.087Z,8.50
2018-10-18T03:44:01.639Z,8.60
2018-10-18T03:49:04.663Z,8.60
2018-10-18T03:54:07.367Z,8.50
2018-10-18T03:59:09.759Z,8.40
2018-10-18T04:04:12.316Z,8.40
2018-10-18T04:09:14.872Z,8.30
2018-10-18T04:14:17.399Z,8.30
2018-10-18T04:19:19.946Z,8.30
2018-10-18T04:24:22.452Z,8.30
2018-10-18T04:29:25.039Z,8.20
2018-10-18T04:34:27.608Z,8.20
2018-10-18T04:39:30.120Z,8.20
2018-10-18T04:49:35.141Z,8.20
2018-10-18T04:54:37.647Z,8.20
2018-10-18T04:59:40.157Z,8.10
2018-10-18T05:04:52.814Z,8.10
2018-10-18T05:09:55.344Z,8.00
2018-10-18T05:14:57.891Z,8.00
2018-10-18T05:20:00.409Z,8.00
2018-10-18T05:25:03.193Z,8.00
2018-10-18T05:30:06.252Z,7.90
2018-10-18T05:35:08.803Z,7.80
2018-10-18T05:40:11.343Z,7.80
2018-10-18T05:45:13.887Z,7.80
2018-10-18T05:50:16.441Z,7.80
2018-10-18T05:55:18.991Z,7.90
2018-10-18T06:00:21.590Z,7.90
2018-10-18T06:05:24.077Z,7.90
2018-10-18T06:10:38.316Z,8.00
2018-10-18T06:15:40.751Z,8.10
2018-10-18T06:20:43.337Z,8.20
2018-10-18T06:25:45.882Z,8.40
2018-10-18T06:30:48.411Z,8.50
2018-10-18T06:35:50.943Z,8.70
2018-10-18T06:40:53.505Z,9.00
2018-10-18T06:45:56.002Z,9.30
2018-10-18T06:50:58.550Z,9.50
2018-10-18T06:56:01.195Z,9.80
2018-10-18T07:01:03.988Z,10.20
2018-10-18T07:06:07.171Z,10.50
2018-10-18T07:11:09.704Z,10.80
2018-10-18T07:16:12.232Z,11.00
2018-10-18T07:21:14.782Z,11.30
2018-10-18T07:26:17.328Z,11.70
2018-10-18T07:31:19.843Z,12.10
2018-10-18T07:36:22.402Z,12.40
2018-10-18T07:41:25.050Z,12.70
2018-10-18T07:46:27.745Z,12.90
2018-10-18T07:51:30.272Z,13.30
2018-10-18T07:56:32.803Z,13.70
2018-10-18T08:01:35.323Z,13.90
2018-10-18T08:06:37.848Z,14.60
2018-10-18T08:11:40.686Z,14.80
2018-10-18T08:16:43.301Z,15.00
2018-10-18T08:21:45.806Z,15.40
2018-10-18T08:26:48.375Z,15.80
2018-10-18T08:31:51.055Z,16.50
2018-10-18T08:36:53.471Z,16.90
2018-10-18T08:41:55.991Z,16.90
2018-10-18T08:46:58.557Z,17.70
2018-10-18T08:52:01.140Z,18.30
2018-10-18T08:57:03.747Z,17.90
2018-10-18T09:02:06.299Z,17.90
2018-10-18T09:07:08.950Z,18.10
2018-10-18T09:12:11.412Z,18.60
2018-10-18T09:17:14.168Z,19.90
2018-10-18T09:22:16.691Z,20.20
2018-10-18T09:27:19.238Z,20.50
2018-10-18T09:32:21.911Z,20.80
2018-10-18T09:37:24.506Z,21.40
2018-10-18T09:42:27.032Z,21.40
2018-10-18T09:47:29.554Z,22.20
2018-10-18T09:52:32.091Z,22.20
2018-10-18T09:57:34.635Z,23.00
2018-10-18T10:02:42.730Z,22.60
2018-10-18T10:07:45.562Z,22.40
2018-10-18T10:12:48.084Z,23.40
2018-10-18T10:17:50.689Z,23.40
2018-10-18T10:22:53.127Z,23.40
2018-10-18T10:27:56.261Z,24.30
2018-10-18T10:32:58.875Z,24.70
2018-10-18T10:38:01.362Z,24.70
2018-10-18T10:43:03.989Z,24.60
2018-10-18T10:48:06.556Z,24.50
2018-10-18T10:53:09.052Z,24.00
2018-10-18T10:58:11.619Z,24.40
2018-10-18T11:03:14.173Z,24.10
2018-10-18T11:08:16.791Z,25.10
2018-10-18T11:13:19.267Z,25.50
2018-10-18T11:18:21.794Z,25.40
2018-10-18T11:23:24.342Z,25.80
2018-10-18T11:28:26.851Z,25.70
2018-10-18T11:33:29.462Z,26.70
2018-10-18T11:38:31.976Z,27.10
2018-10-18T11:43:34.501Z,28.50
2018-10-18T11:48:37.076Z,27.60
2018-10-18T11:53:39.600Z,27.90
2018-10-18T11:58:42.204Z,28.80
2018-10-18T12:03:44.735Z,28.70
2018-10-18T12:08:47.291Z,28.80
2018-10-18T12:13:49.851Z,30.60
2018-10-18T12:18:54.621Z,31.50
2018-10-18T12:23:57.102Z,31.80
2018-10-18T12:28:59.666Z,31.20
2018-10-18T12:34:02.161Z,31.80
2018-10-18T12:39:09.895Z,32.30
2018-10-18T12:44:12.432Z,32.70
2018-10-18T12:49:15.044Z,32.60
2018-10-18T12:54:17.729Z,32.60
2018-10-18T12:59:20.261Z,33.20
2018-10-18T13:04:22.867Z,33.80
2018-10-18T13:09:25.947Z,34.40
2018-10-18T13:14:29.397Z,34.50
2018-10-18T13:19:31.916Z,33.90
2018-10-18T13:24:34.456Z,33.10
2018-10-18T13:29:36.978Z,33.80
2018-10-18T13:34:39.508Z,35.60
2018-10-18T13:39:42.016Z,33.80
2018-10-18T13:44:44.576Z,34.50
2018-10-18T13:49:47.099Z,34.70
2018-10-18T13:54:49.639Z,34.80
2018-10-18T14:00:05.550Z,35.10
2018-10-18T14:05:08.179Z,34.90
2018-10-18T14:10:10.804Z,34.50
2018-10-18T14:15:13.763Z,35.00
2018-10-18T14:20:16.478Z,34.40
2018-10-18T14:25:18.886Z,35.00
2018-10-18T14:30:21.522Z,33.40
2018-10-18T14:35:23.983Z,32.70
2018-10-18T14:40:26.516Z,32.80
2018-10-18T14:45:29.100Z,33.60
2018-10-18T14:50:31.882Z,32.80
2018-10-18T14:55:34.244Z,31.70
2018-10-18T15:00:36.784Z,32.20
2018-10-18T15:05:39.307Z,31.90
2018-10-18T15:10:41.830Z,31.70
2018-10-18T15:15:44.378Z,31.50
2018-10-18T15:20:46.921Z,30.60
2018-10-18T15:25:49.844Z,30.60
2018-10-18T15:30:52.296Z,29.70
2018-10-18T15:35:54.836Z,28.30
2018-10-18T15:40:57.416Z,27.70
2018-10-18T15:45:59.938Z,25.60
2018-10-18T15:51:02.565Z,24.30
2018-10-18T15:56:05.074Z,22.50
2018-10-18T16:01:07.679Z,21.90
2018-10-18T16:06:10.439Z,21.00
2018-10-18T16:11:13.017Z,20.30
2018-10-18T16:16:16.415Z,19.50
2018-10-18T16:21:19.038Z,18.90
2018-10-18T16:26:21.710Z,18.30
2018-10-18T16:31:24.423Z,17.70
2018-10-18T16:36:27.920Z,17.40
2018-10-18T16:41:32.073Z,16.90
2018-10-18T16:46:35.091Z,16.40
2018-10-18T16:51:37.636Z,16.00
2018-10-18T16:56:40.183Z,15.80
2018-10-18T17:01:42.728Z,15.50
2018-10-18T17:06:45.367Z,15.20
2018-10-18T17:11:49.519Z,15.10
2018-10-18T17:16:52.081Z,15.60
2018-10-18T17:21:54.902Z,16.80
2018-10-18T17:26:57.506Z,17.90
2018-10-18T17:32:00.115Z,16.70
2018-10-18T17:37:02.636Z,17.10
2018-10-18T17:42:05.300Z,16.80
2018-10-18T17:47:11.002Z,16.80
2018-10-18T17:52:16.017Z,16.60
2018-10-18T17:57:18.600Z,16.30
2018-10-18T18:02:21.248Z,16.20
2018-10-18T18:07:24.115Z,16.00
2018-10-18T18:12:26.689Z,16.00
2018-10-18T18:17:31.438Z,15.40
2018-10-18T18:22:34.078Z,15.10
2018-10-18T18:27:36.662Z,14.90
2018-10-18T18:32:39.562Z,14.70
2018-10-18T18:37:42.207Z,14.40
2018-10-18T18:42:44.802Z,14.10
2018-10-18T18:47:49.193Z,13.80
2018-10-18T18:52:51.913Z,13.40
2018-10-18T18:57:54.512Z,13.00
2018-10-18T19:02:57.101Z,12.70
2018-10-18T19:07:59.628Z,12.50
2018-10-18T19:13:02.251Z,12.30
2018-10-18T19:18:04.987Z,13.10
2018-10-18T19:23:07.739Z,12.10
2018-10-18T19:28:10.306Z,11.90
2018-10-18T19:33:12.952Z,11.80
2018-10-18T19:38:15.492Z,11.70
2018-10-18T19:43:18.107Z,11.60
2018-10-18T19:48:20.780Z,11.60
2018-10-18T19:53:23.327Z,11.50
2018-10-18T19:58:25.888Z,11.40
2018-10-18T20:03:28.556Z,11.30
2018-10-18T20:08:31.143Z,11.20
2018-10-18T20:13:33.702Z,11.10
2018-10-18T20:18:36.374Z,11.00
2018-10-18T20:23:38.940Z,10.90
2018-10-18T20:28:41.470Z,10.90
2018-10-18T20:33:44.104Z,10.80
2018-10-18T20:38:46.692Z,10.80
2018-10-18T20:43:49.335Z,10.70
2018-10-18T20:48:51.888Z,10.70
2018-10-18T20:53:54.433Z,10.60
2018-10-18T20:58:56.978Z,10.40
2018-10-18T21:03:59.518Z,10.30
2018-10-18T21:09:02.136Z,10.30
2018-10-18T21:14:05.492Z,10.20
2018-10-18T21:19:08.063Z,10.20
2018-10-18T21:24:10.720Z,10.10
2018-10-18T21:29:13.298Z,10.00
2018-10-18T21:34:15.872Z,9.80
2018-10-18T21:39:30.650Z,10.80
2018-10-18T21:44:35.540Z,9.60
2018-10-18T21:49:38.051Z,9.50
2018-10-18T21:54:40.580Z,9.40
2018-10-18T21:59:43.115Z,9.40
2018-10-18T22:04:45.796Z,9.30
2018-10-18T22:09:48.340Z,9.30
2018-10-18T22:14:50.855Z,9.20
2018-10-18T22:19:54.213Z,9.10
2018-10-18T22:24:56.767Z,9.60
2018-10-18T22:29:59.355Z,8.90
2018-10-18T22:35:01.917Z,9.00
2018-10-18T22:40:05.484Z,9.10
2018-10-18T22:45:08.461Z,9.10
2018-10-18T22:50:10.946Z,9.00
2018-10-18T22:55:13.451Z,9.00
2018-10-18T23:00:15.976Z,8.90
2018-10-18T23:05:18.496Z,8.90
2018-10-18T23:10:21.005Z,8.90
2018-10-18T23:15:23.528Z,8.90
2018-10-18T23:20:26.057Z,8.90
2018-10-18T23:25:28.744Z,8.90
2018-10-18T23:30:31.255Z,9.00
2018-10-18T23:35:33.781Z,9.10
2018-10-18T23:40:36.288Z,9.10
2018-10-18T23:45:38.807Z,8.90
2018-10-18T23:50:42.263Z,8.80
2018-10-18T23:55:44.784Z,8.80
